METAR Data
IDs: Format: Raw Decoded Include TAF

Data at: 0355 UTC 05 Jun 2020

KIRK 050255Z AUTO 18006KT 10SM CLR 22/19 A2981 RMK AO2 SLP091 T02170194 51005
KIRK 050155Z AUTO 10SM CLR 23/20 A2980 RMK AO2 SLP089 T02280200
KIRK 050055Z AUTO 20006KT 10SM CLR 26/20 A2981 RMK AO2 SLP089 T02610200
KIRK 042355Z AUTO 19007KT 10SM CLR 28/20 A2979 RMK AO2 SLP084 T02780200 10300 20278 55003
KIRK 042255Z AUTO 21009KT 10SM BKN038 28/21 A2979 RMK AO2 SLP083 T02830211
KIRK 042155Z AUTO 20008KT 10SM CLR 29/21 A2979 RMK AO2 SLP084 T02890206
KIRK 042055Z AUTO VRB05KT 10SM CLR 29/20 A2980 RMK AO2 SLP088 T02940200 58009
KIRK 041955Z AUTO VRB05KT 10SM CLR 29/19 A2982 RMK AO2 SLP090 T02940194
KIRK 041855Z AUTO 23008KT 10SM CLR 28/19 A2983 RMK AO2 SLP096 T02830194
KIRK 041755Z AUTO VRB04KT 10SM CLR 28/19 A2983 RMK AO2 SLP097 T02780189 10278 20194 56006
KIRK 041655Z AUTO 25005KT 10SM CLR 26/19 A2984 RMK AO2 SLP099 T02610189
KIRK 041555Z AUTO VRB04KT 10SM CLR 24/19 A2985 RMK AO2 SLP102 T02440189
KIRK 041455Z AUTO 00000KT 10SM CLR 23/18 A2985 RMK AO2 SLP103 T02280183 51017
KIRK 041355Z AUTO 36003KT 10SM CLR 21/18 A2984 RMK AO2 SLP099 T02110183
KIRK 041255Z AUTO 29005G14KT 10SM BKN120 19/18 A2981 RMK AO2 SLP091 T01940178
KIRK 041155Z AUTO 28007KT 10SM BKN110 19/18 A2980 RMK AO2 SLP085 60004 70004 T01940183 10206 20194 50005
KIRK 041102Z AUTO 22004KT 10SM FEW007 SCT032 BKN090 19/18 A2980 RMK AO2 T01940183
KIRK 041055Z AUTO 23007KT 10SM SCT009 BKN027 OVC120 19/18 A2980 RMK AO2 RAE43 SLP085 P0004 T01940183
KIRK 041032Z AUTO 20004KT 10SM -RA SCT009 BKN055 OVC110 19/19 A2980 RMK AO2 P0003 T01940189
KIRK 040955Z AUTO 21009KT 10SM -RA FEW055 SCT085 BKN110 19/18 A2978 RMK AO2 RAB48 SLP080 P0000 T01940183
KIRK 040855Z AUTO 21007KT 10SM CLR 19/18 A2980 RMK AO2 SLP085 T01940178 56006
KIRK 040755Z AUTO 21003KT 10SM CLR 20/18 A2980 RMK AO2 PRESRR SLP086 T02000183
KIRK 040655Z AUTO 18005KT 10SM CLR 20/19 A2978 RMK AO2 LTG DSNT S AND SW SLP079 T02000189
KIRK 040625Z AUTO 19007KT 10SM FEW045 20/19 A2980 RMK AO2 LTG DSNT S-W T02000189
KIRK 040610Z AUTO 17006KT 10SM VCTS CLR 20/19 A2980 RMK AO2 LTG DSNT S AND SW T02000189
KIRK 040603Z AUTO 17006KT 10SM CLR 21/19 A2981 RMK AO2 LTG DSNT S AND SW T02060189
KIRK 040555Z AUTO 18008KT 10SM VCTS CLR 21/19 A2982 RMK AO2 LTG DSNT S-W SLP093 T02060189 10300 20206 403110206 50009
KIRK 040548Z AUTO 18009KT 10SM VCTS CLR 21/19 A2982 RMK AO2 LTG DSNT SE-W T02060189
KIRK 040503Z AUTO 16011G21KT 10SM SCT045 21/18 A2982 RMK AO2 LTG DSNT S AND SW T02110183
KIRK 040455Z AUTO 16013G21KT 10SM VCTS SCT041 BKN048 21/18 A2984 RMK AO2 PK WND 14026/0409 LTG DSNT S AND SW SLP100 T02110178
KIRK 040448Z AUTO 17012KT 10SM VCTS SCT036 BKN047 21/17 A2983 RMK AO2 PK WND 14026/0409 LTG DSNT S AND SW T02110172
KIRK 040430Z AUTO 14014KT 10SM BKN030 OVC037 22/17 A2982 RMK AO2 PK WND 14026/0409 LTG DSNT SE-SW T02170167
KIRK 040420Z AUTO 14015G23KT 10SM VCTS OVC027 22/17 A2983 RMK AO2 PK WND 14026/0409 LTG DSNT SE-SW T02170167
KIRK 040355Z AUTO 13013KT 10SM FEW019 BKN027 OVC032 22/18 A2982 RMK AO2 PK WND 15026/0331 LTG DSNT E-SW SLP092 T02220178
KIRK 040255Z AUTO 00000KT 10SM SCT050 26/23 A2979 RMK AO2 SLP083 T02560233 53008
KIRK 040155Z AUTO 01004KT 10SM OVC055 27/23 A2977 RMK AO2 SLP074 T02720233
KIRK 040055Z AUTO 33003KT 10SM CLR 28/24 A2976 RMK AO2 SLP072 T02830239
KIRK 032355Z AUTO VRB03KT 10SM CLR 30/24 A2977 RMK AO2 LTG DSNT SE AND S SLP074 T03000239 10311 20272 56015
KIRK 032255Z AUTO 31004KT 10SM FEW040 FEW048 31/24 A2978 RMK AO2 SLP079 T03060239
KIRK 032155Z AUTO 26003KT 10SM FEW031 FEW040 31/23 A2979 RMK AO2 SLP082 T03060228
KIRK 032055Z AUTO 00000KT 10SM FEW039 31/23 A2981 RMK AO2 SLP089 T03110233 56025
KIRK 031955Z AUTO 00000KT 10SM SCT035 29/23 A2984 RMK AO2 SLP097 T02940233
KIRK 031855Z AUTO VRB04KT 10SM BKN045 28/22 A2986 RMK AO2 SLP105 T02830222
KIRK 031755Z AUTO 05003KT 10SM OVC038 28/22 A2989 RMK AO2 SLP115 T02830222 10289 20233 53002
KIRK 031710Z AUTO VRB03KT 10SM SCT024 OVC034 28/23 A2990 RMK AO2 T02830228
KIRK 031655Z AUTO 27006KT 10SM BKN023 BKN032 28/22 A2989 RMK AO2 SLP115 T02780222